Time;durP1;ratioP1;P1;durP2;ratioP2;P2;SDS_P1;SDS_P2;PMS_P1;PMS_P2;Temp;Humidity;BMP_temperature;BMP_pressure;BME280_temperature;BME280_humidity;BME280_pressure;Samples;Min_cycle;Max_cycle;Signal;HPM_P1;HPM_P2
2022/04/25 00:01:26;;;;;;;11.07;9.60;;;;;;;;;;5019197;28;20358;-63
2022/04/25 00:03:54;;;;;;;11.90;10.17;;;;;;;;;;5016732;28;20574;-64
2022/04/25 00:06:21;;;;;;;12.20;10.80;;;;;;;;;;5014814;28;20230;-65
2022/04/25 00:08:48;;;;;;;12.30;10.70;;;;;;;;;;5021490;28;20273;-63
2022/04/25 00:11:16;;;;;;;14.77;11.87;;;;;;;;;;5017884;28;20206;-64
2022/04/25 00:13:43;;;;;;;15.30;12.27;;;;;;;;;;5010479;28;20218;-63
2022/04/25 00:16:11;;;;;;;13.87;11.87;;;;;;;;;;5022050;28;20227;-64
2022/04/25 00:18:38;;;;;;;15.07;12.27;;;;;;;;;;5025366;28;20672;-64
2022/04/25 00:21:06;;;;;;;13.50;12.10;;;;;;;;;;5018487;28;20220;-65
2022/04/25 00:23:33;;;;;;;17.73;11.40;;;;;;;;;;5015182;28;20287;-64
2022/04/25 00:26:01;;;;;;;13.73;11.37;;;;;;;;;;5016484;28;20265;-63
2022/04/25 00:28:28;;;;;;;13.17;10.93;;;;;;;;;;5004959;28;20829;-64
2022/04/25 00:30:56;;;;;;;15.33;11.30;;;;;;;;;;5010453;28;20261;-64
2022/04/25 00:33:23;;;;;;;14.33;11.67;;;;;;;;;;5014867;28;20215;-64
2022/04/25 00:35:51;;;;;;;13.23;11.83;;;;;;;;;;5020261;28;20218;-65
2022/04/25 00:38:18;;;;;;;12.50;10.83;;;;;;;;;;5015959;28;20231;-64
2022/04/25 00:40:46;;;;;;;15.07;12.53;;;;;;;;;;5008453;28;20199;-64
2022/04/25 00:43:14;;;;;;;13.53;11.13;;;;;;;;;;5007398;28;20344;-64
2022/04/25 00:45:41;;;;;;;15.63;12.30;;;;;;;;;;5012350;28;20297;-64
2022/04/25 00:48:08;;;;;;;13.30;11.63;;;;;;;;;;5015359;28;20298;-64
2022/04/25 00:50:38;;;;;;;15.27;12.33;;;;;;;;;;5013232;28;20215;-64
2022/04/25 00:53:09;;;;;;;14.13;12.43;;;;;;;;;;5021921;28;21172;-64
2022/04/25 00:55:36;;;;;;;13.63;11.93;;;;;;;;;;5015172;28;20273;-64
2022/04/25 00:58:04;;;;;;;14.43;12.23;;;;;;;;;;5012365;28;20239;-64
2022/04/25 01:00:32;;;;;;;15.50;13.80;;;;;;;;;;5015982;28;20250;-65
2022/04/25 01:02:59;;;;;;;13.53;11.67;;;;;;;;;;5013536;28;20258;-65
2022/04/25 01:05:27;;;;;;;16.37;12.53;;;;;;;;;;5015110;28;20231;-63
2022/04/25 01:07:54;;;;;;;14.30;12.17;;;;;;;;;;5016799;28;20715;-64
2022/04/25 01:10:21;;;;;;;12.73;11.33;;;;;;;;;;5014952;28;20653;-62
2022/04/25 01:12:49;;;;;;;22.50;15.73;;;;;;;;;;5019234;28;20273;-65
2022/04/25 01:15:16;;;;;;;14.83;12.40;;;;;;;;;;5016362;28;20724;-64
2022/04/25 01:17:43;;;;;;;16.37;13.07;;;;;;;;;;5012114;28;20277;-64
2022/04/25 01:20:11;;;;;;;14.10;11.77;;;;;;;;;;5016613;28;20231;-64
2022/04/25 01:27:15;;;;;;;15.13;12.40;;;;;;;;;;5013397;28;21182;-64
2022/04/25 01:28:35;;;;;;;14.07;11.47;;;;;;;;;;5015766;28;20635;-64
2022/04/25 01:31:03;;;;;;;14.20;12.50;;;;;;;;;;5021239;28;20203;-64
2022/04/25 01:33:31;;;;;;;16.20;12.60;;;;;;;;;;5017971;28;20258;-64
2022/04/25 01:35:58;;;;;;;16.63;12.90;;;;;;;;;;5016415;28;20731;-63
2022/04/25 01:38:25;;;;;;;15.97;13.60;;;;;;;;;;5013958;28;20714;-65
2022/04/25 01:40:53;;;;;;;13.33;11.93;;;;;;;;;;5023831;28;20202;-64
2022/04/25 01:43:20;;;;;;;15.77;12.70;;;;;;;;;;5015162;28;20630;-63
2022/04/25 01:45:48;;;;;;;15.10;12.83;;;;;;;;;;5012271;28;20222;-64
2022/04/25 01:48:15;;;;;;;16.20;12.37;;;;;;;;;;5017117;28;20207;-64
2022/04/25 01:50:43;;;;;;;16.87;13.37;;;;;;;;;;5014799;28;20215;-64
2022/04/25 01:53:10;;;;;;;14.13;12.37;;;;;;;;;;5019537;28;20222;-64
2022/04/25 01:55:37;;;;;;;17.13;13.30;;;;;;;;;;5014953;28;20231;-63
2022/04/25 01:58:05;;;;;;;17.53;15.07;;;;;;;;;;5011133;28;20219;-64
2022/04/25 02:00:33;;;;;;;18.17;14.20;;;;;;;;;;5010344;28;20321;-64
2022/04/25 02:03:00;;;;;;;16.47;14.17;;;;;;;;;;5014388;28;20215;-65
2022/04/25 02:05:28;;;;;;;16.30;13.30;;;;;;;;;;5016255;28;20317;-63
2022/04/25 02:07:55;;;;;;;17.53;14.10;;;;;;;;;;5013669;28;20215;-63
2022/04/25 02:10:23;;;;;;;16.83;13.47;;;;;;;;;;5018676;28;20207;-65
2022/04/25 02:12:50;;;;;;;15.37;13.10;;;;;;;;;;5020086;28;20199;-64
2022/04/25 02:15:17;;;;;;;16.17;13.33;;;;;;;;;;5015765;28;20243;-62
2022/04/25 02:17:45;;;;;;;16.83;13.47;;;;;;;;;;5022302;28;20633;-64
2022/04/25 02:20:13;;;;;;;14.47;12.57;;;;;;;;;;5012013;28;20685;-63
2022/04/25 02:22:41;;;;;;;16.97;13.43;;;;;;;;;;5014980;28;20211;-65
2022/04/25 02:25:09;;;;;;;16.07;13.57;;;;;;;;;;5016584;28;20215;-63
2022/04/25 02:27:36;;;;;;;16.27;13.27;;;;;;;;;;5009672;28;20809;-65
2022/04/25 02:30:04;;;;;;;17.93;13.47;;;;;;;;;;5014401;28;20210;-64
2022/04/25 02:32:31;;;;;;;17.13;13.57;;;;;;;;;;5016886;28;20208;-64
2022/04/25 02:34:59;;;;;;;18.83;14.33;;;;;;;;;;5019549;28;20600;-64
2022/04/25 02:37:27;;;;;;;15.60;13.17;;;;;;;;;;5015670;28;20247;-64
2022/04/25 02:39:54;;;;;;;16.13;13.53;;;;;;;;;;5020562;28;20226;-64
2022/04/25 02:42:22;;;;;;;15.43;13.50;;;;;;;;;;5015697;28;20210;-64
2022/04/25 02:44:49;;;;;;;15.00;13.40;;;;;;;;;;5015040;28;20206;-64
2022/04/25 02:47:17;;;;;;;17.07;13.97;;;;;;;;;;5015378;28;20245;-64
2022/04/25 02:49:44;;;;;;;15.60;12.93;;;;;;;;;;5021621;28;20601;-64
2022/04/25 02:52:13;;;;;;;15.50;12.90;;;;;;;;;;5016401;28;20199;-65
2022/04/25 02:54:40;;;;;;;15.40;12.83;;;;;;;;;;5021564;28;20217;-65
2022/04/25 02:57:08;;;;;;;15.40;12.60;;;;;;;;;;5020482;28;20215;-64
2022/04/25 02:59:35;;;;;;;18.00;14.60;;;;;;;;;;5016385;28;20227;-66
2022/04/25 03:02:03;;;;;;;27.00;18.17;;;;;;;;;;5013257;28;20234;-63
2022/04/25 03:04:30;;;;;;;22.17;16.40;;;;;;;;;;5029203;28;20213;-64
2022/04/25 03:06:59;;;;;;;18.43;14.80;;;;;;;;;;5015733;28;20239;-64
2022/04/25 03:09:27;;;;;;;20.80;15.83;;;;;;;;;;5012253;28;20202;-62
2022/04/25 03:11:55;;;;;;;18.90;15.43;;;;;;;;;;5010768;28;20900;-65
2022/04/25 03:14:22;;;;;;;16.47;13.50;;;;;;;;;;5021214;28;20755;-65
2022/04/25 03:16:50;;;;;;;18.03;15.07;;;;;;;;;;5024139;28;20227;-64
2022/04/25 03:19:18;;;;;;;17.57;13.93;;;;;;;;;;5022763;28;20231;-62
2022/04/25 03:21:46;;;;;;;18.67;14.73;;;;;;;;;;5024675;28;20196;-64
2022/04/25 03:24:14;;;;;;;15.00;13.40;;;;;;;;;;5011921;28;20203;-65
2022/04/25 03:26:41;;;;;;;19.77;14.23;;;;;;;;;;5023318;28;20231;-62
2022/04/25 03:29:09;;;;;;;15.73;13.47;;;;;;;;;;5021732;28;20208;-63
2022/04/25 03:31:36;;;;;;;15.40;13.53;;;;;;;;;;5020447;28;20933;-65
2022/04/25 03:34:04;;;;;;;16.07;14.37;;;;;;;;;;5018481;28;20337;-63
2022/04/25 03:36:31;;;;;;;24.43;19.23;;;;;;;;;;5018337;28;20282;-64
2022/04/25 03:38:58;;;;;;;17.77;14.93;;;;;;;;;;5018212;28;20243;-64
2022/04/25 03:41:30;;;;;;;15.47;13.53;;;;;;;;;;5019932;28;20550;-63
2022/04/25 03:43:58;;;;;;;16.43;13.47;;;;;;;;;;5018353;28;20334;-63
2022/04/25 03:46:27;;;;;;;21.13;15.47;;;;;;;;;;5008221;28;20270;-63
2022/04/25 03:48:54;;;;;;;19.67;15.23;;;;;;;;;;5023232;28;20553;-63
2022/04/25 03:51:22;;;;;;;19.67;15.63;;;;;;;;;;5022146;28;20211;-63
2022/04/25 03:53:50;;;;;;;21.93;15.17;;;;;;;;;;5023321;28;20200;-65
2022/04/25 03:59:03;;;;;;;18.67;16.67;;;;;;;;;;5021573;28;20701;-63
2022/04/25 04:01:31;;;;;;;18.87;15.37;;;;;;;;;;5021632;28;20214;-64
2022/04/25 04:04:04;;;;;;;17.13;14.63;;;;;;;;;;5023030;28;20203;-64
2022/04/25 04:06:37;;;;;;;13.63;12.20;;;;;;;;;;5023794;28;20898;-64
2022/04/25 04:09:44;;;;;;;15.03;13.30;;;;;;;;;;5014746;28;20211;-65
2022/04/25 04:11:53;;;;;;;14.73;13.13;;;;;;;;;;5016259;28;20602;-64
2022/04/25 04:14:20;;;;;;;15.17;13.43;;;;;;;;;;5016842;28;20226;-65
2022/04/25 04:16:47;;;;;;;18.67;15.00;;;;;;;;;;5018116;28;20223;-63
2022/04/25 04:19:16;;;;;;;15.23;13.37;;;;;;;;;;5020234;28;20218;-63
2022/04/25 04:21:44;;;;;;;17.97;14.07;;;;;;;;;;5020351;28;20203;-65
2022/04/25 04:24:11;;;;;;;18.63;14.60;;;;;;;;;;5013104;28;20202;-64
2022/04/25 04:26:38;;;;;;;17.73;14.57;;;;;;;;;;5008876;28;20795;-64
2022/04/25 04:29:07;;;;;;;18.13;14.90;;;;;;;;;;5007517;28;20565;-63
2022/04/25 04:31:34;;;;;;;17.27;14.17;;;;;;;;;;5014350;28;20222;-64
2022/04/25 04:34:02;;;;;;;17.03;14.13;;;;;;;;;;5012816;28;20203;-64
2022/04/25 04:36:29;;;;;;;19.13;14.93;;;;;;;;;;5012213;28;20223;-65
2022/04/25 04:38:56;;;;;;;17.70;14.93;;;;;;;;;;5017843;28;20225;-64
2022/04/25 04:41:24;;;;;;;16.80;14.30;;;;;;;;;;5003738;28;20203;-65
2022/04/25 04:43:51;;;;;;;17.27;14.27;;;;;;;;;;5016886;28;20684;-64
2022/04/25 04:46:18;;;;;;;19.77;15.10;;;;;;;;;;5015846;28;20281;-64
2022/04/25 04:48:46;;;;;;;15.97;14.03;;;;;;;;;;5011529;28;20211;-63
2022/04/25 04:51:13;;;;;;;18.73;15.00;;;;;;;;;;5025464;28;20219;-64
2022/04/25 04:53:41;;;;;;;19.43;15.80;;;;;;;;;;5013440;28;20669;-65
2022/04/25 04:56:08;;;;;;;18.50;14.63;;;;;;;;;;5013515;28;20461;-64
2022/04/25 04:58:40;;;;;;;17.30;15.10;;;;;;;;;;5007898;28;20286;-65
2022/04/25 05:01:07;;;;;;;17.23;14.40;;;;;;;;;;5016597;28;20235;-64
2022/04/25 05:03:36;;;;;;;19.90;15.03;;;;;;;;;;5016894;28;20214;-64
2022/04/25 05:06:03;;;;;;;19.00;17.00;;;;;;;;;;5017350;28;20535;-64
2022/04/25 05:08:31;;;;;;;21.20;19.00;;;;;;;;;;5018099;28;20207;-65
2022/04/25 05:10:58;;;;;;;19.77;17.67;;;;;;;;;;5011905;28;20273;-65
2022/04/25 05:13:25;;;;;;;17.33;14.50;;;;;;;;;;5014485;28;20262;-64
2022/04/25 05:15:52;;;;;;;17.27;14.67;;;;;;;;;;5008308;28;20249;-65
2022/04/25 05:18:20;;;;;;;17.73;15.53;;;;;;;;;;5012686;28;20209;-66
2022/04/25 05:20:47;;;;;;;17.13;14.70;;;;;;;;;;5015622;28;20227;-65
2022/04/25 05:23:15;;;;;;;14.90;13.23;;;;;;;;;;5016058;28;20263;-64
2022/04/25 05:25:43;;;;;;;16.87;13.03;;;;;;;;;;5015111;28;20751;-64
2022/04/25 05:28:10;;;;;;;15.77;13.77;;;;;;;;;;5014211;28;20207;-66
2022/04/25 05:30:38;;;;;;;14.17;12.17;;;;;;;;;;5014155;28;20207;-65
2022/04/25 05:33:05;;;;;;;20.23;16.80;;;;;;;;;;5015240;28;20207;-64
2022/04/25 05:35:33;;;;;;;13.40;12.00;;;;;;;;;;5032491;28;20223;-65
2022/04/25 05:38:01;;;;;;;12.23;10.90;;;;;;;;;;5012482;28;20211;-64
2022/04/25 05:40:29;;;;;;;12.93;11.33;;;;;;;;;;5001065;28;20227;-65
2022/04/25 05:42:57;;;;;;;12.50;11.20;;;;;;;;;;5010092;28;20207;-64
2022/04/25 05:45:26;;;;;;;12.20;10.70;;;;;;;;;;5019619;28;20230;-65
2022/04/25 05:47:55;;;;;;;11.93;10.70;;;;;;;;;;5012364;28;20210;-64
2022/04/25 05:53:11;;;;;;;12.33;11.13;;;;;;;;;;5010969;28;20894;-65
2022/04/25 05:55:38;;;;;;;13.03;11.63;;;;;;;;;;5012711;28;20227;-65
2022/04/25 05:58:06;;;;;;;14.17;10.77;;;;;;;;;;5022925;28;20241;-65
2022/04/25 06:00:35;;;;;;;14.13;12.63;;;;;;;;;;5015355;28;20227;-64
2022/04/25 06:03:03;;;;;;;12.60;11.30;;;;;;;;;;5013460;28;20211;-65
2022/04/25 06:05:30;;;;;;;13.73;11.83;;;;;;;;;;5012130;28;20317;-65
2022/04/25 06:07:57;;;;;;;12.20;11.00;;;;;;;;;;5011595;28;20212;-64
2022/04/25 06:10:25;;;;;;;12.37;11.07;;;;;;;;;;5010809;28;20204;-64
2022/04/25 06:12:53;;;;;;;12.13;10.63;;;;;;;;;;5019987;28;20213;-65
2022/04/25 06:15:21;;;;;;;12.20;10.90;;;;;;;;;;5021345;28;20222;-65
2022/04/25 06:17:51;;;;;;;11.97;10.73;;;;;;;;;;5024475;28;20502;-64
2022/04/25 06:20:19;;;;;;;12.43;11.23;;;;;;;;;;5019063;28;20766;-64
2022/04/25 06:22:53;;;;;;;12.73;11.33;;;;;;;;;;5024003;28;20206;-65
2022/04/25 06:25:21;;;;;;;12.67;11.37;;;;;;;;;;5021883;28;20231;-63
2022/04/25 06:27:49;;;;;;;14.93;11.83;;;;;;;;;;5023666;28;20730;-63
2022/04/25 06:30:16;;;;;;;13.37;11.30;;;;;;;;;;5025542;28;20616;-64
2022/04/25 06:32:44;;;;;;;12.37;11.17;;;;;;;;;;5026583;28;20237;-65
2022/04/25 06:35:12;;;;;;;11.77;10.57;;;;;;;;;;5025136;28;20699;-63
2022/04/25 06:37:39;;;;;;;11.43;10.07;;;;;;;;;;5024636;28;20210;-64
2022/04/25 06:40:07;;;;;;;11.90;10.70;;;;;;;;;;5018289;28;20257;-65
2022/04/25 06:42:35;;;;;;;13.10;11.07;;;;;;;;;;5023644;28;20196;-65
2022/04/25 06:45:02;;;;;;;11.97;10.47;;;;;;;;;;5023489;28;20238;-64
2022/04/25 06:47:29;;;;;;;12.20;10.90;;;;;;;;;;5006325;28;20858;-65
2022/04/25 06:49:57;;;;;;;13.03;11.03;;;;;;;;;;5013148;28;20281;-64
2022/04/25 06:52:24;;;;;;;12.40;11.10;;;;;;;;;;5022273;28;20682;-65
2022/04/25 06:54:52;;;;;;;12.90;11.60;;;;;;;;;;5015574;28;20669;-63
2022/04/25 06:57:22;;;;;;;12.67;11.37;;;;;;;;;;5016726;28;20210;-65
2022/04/25 06:59:50;;;;;;;12.97;11.27;;;;;;;;;;5017291;28;20273;-65
2022/04/25 07:02:18;;;;;;;12.73;11.37;;;;;;;;;;5006182;28;20681;-65
2022/04/25 07:04:46;;;;;;;13.40;11.73;;;;;;;;;;5019074;28;20302;-65
2022/04/25 07:07:13;;;;;;;13.13;11.63;;;;;;;;;;5016741;28;20209;-65
2022/04/25 07:09:41;;;;;;;12.93;11.57;;;;;;;;;;5015144;28;21104;-65
2022/04/25 07:12:08;;;;;;;13.23;11.87;;;;;;;;;;5015757;28;20207;-64
2022/04/25 07:14:36;;;;;;;12.43;11.13;;;;;;;;;;5014321;28;20211;-64
2022/04/25 07:17:03;;;;;;;12.47;11.07;;;;;;;;;;5012770;28;21700;-65
2022/04/25 07:19:31;;;;;;;12.87;11.57;;;;;;;;;;5025570;28;20664;-65
2022/04/25 07:30:20;;;;;;;12.73;11.43;;;;;;;;;;5017247;28;20203;-65
2022/04/25 07:32:48;;;;;;;12.57;11.17;;;;;;;;;;5028346;28;20229;-65
2022/04/25 07:35:16;;;;;;;13.23;11.67;;;;;;;;;;5029367;28;20235;-65
2022/04/25 07:37:43;;;;;;;13.33;11.93;;;;;;;;;;5022040;28;20202;-67
2022/04/25 07:40:11;;;;;;;12.37;11.17;;;;;;;;;;5034924;28;20736;-65
2022/04/25 07:42:39;;;;;;;12.40;11.10;;;;;;;;;;5017895;28;20214;-65
2022/04/25 07:45:08;;;;;;;13.67;12.10;;;;;;;;;;5019649;28;20230;-65
2022/04/25 07:47:36;;;;;;;12.43;11.13;;;;;;;;;;5015810;28;20199;-65
2022/04/25 07:50:03;;;;;;;13.40;12.00;;;;;;;;;;5021403;28;20522;-65
2022/04/25 07:52:31;;;;;;;15.20;12.13;;;;;;;;;;5023960;28;20207;-64
2022/04/25 07:54:58;;;;;;;13.50;12.10;;;;;;;;;;5019354;28;20269;-65
2022/04/25 07:57:26;;;;;;;14.23;12.83;;;;;;;;;;5017860;28;20658;-65
2022/04/25 07:59:54;;;;;;;14.50;13.00;;;;;;;;;;5013017;28;20306;-65
2022/04/25 08:02:23;;;;;;;12.80;11.50;;;;;;;;;;5019933;28;20226;-65
2022/04/25 08:04:51;;;;;;;14.37;12.97;;;;;;;;;;5024716;28;20238;-64
2022/04/25 08:07:18;;;;;;;14.57;12.10;;;;;;;;;;5022176;28;20454;-65
2022/04/25 08:09:45;;;;;;;12.97;11.30;;;;;;;;;;5020588;28;20206;-65
2022/04/25 08:17:59;;;;;;;12.13;10.80;;;;;;;;;;5017351;28;20198;-65
2022/04/25 08:20:37;;;;;;;12.83;10.73;;;;;;;;;;5020519;28;20245;-65
2022/04/25 08:23:07;;;;;;;13.37;11.70;;;;;;;;;;5024670;28;20206;-64
2022/04/25 08:25:34;;;;;;;11.63;10.53;;;;;;;;;;5025348;28;20219;-64
2022/04/25 08:28:02;;;;;;;11.20;10.10;;;;;;;;;;5029464;28;20204;-65
2022/04/25 08:30:29;;;;;;;12.53;11.27;;;;;;;;;;5014580;28;20278;-65
2022/04/25 08:32:57;;;;;;;11.40;10.30;;;;;;;;;;5026097;28;20625;-64
2022/04/25 08:35:25;;;;;;;10.83;9.77;;;;;;;;;;5023167;28;20278;-65
2022/04/25 08:37:54;;;;;;;12.73;10.13;;;;;;;;;;5020299;28;20270;-65
2022/04/25 08:40:22;;;;;;;11.37;9.87;;;;;;;;;;5022616;28;20735;-65
2022/04/25 08:42:49;;;;;;;19.57;15.73;;;;;;;;;;5021065;28;20210;-66
2022/04/25 08:45:17;;;;;;;11.97;10.73;;;;;;;;;;5019346;28;20230;-65
2022/04/25 08:47:50;;;;;;;11.23;10.17;;;;;;;;;;5016141;28;20864;-65
2022/04/25 08:50:17;;;;;;;11.67;10.57;;;;;;;;;;5020812;28;20211;-64
2022/04/25 08:52:46;;;;;;;11.47;10.37;;;;;;;;;;5020670;28;20207;-65
2022/04/25 08:55:14;;;;;;;12.30;11.03;;;;;;;;;;5019775;28;20254;-64
2022/04/25 08:57:42;;;;;;;11.00;9.80;;;;;;;;;;5018942;28;20207;-65
2022/04/25 09:00:10;;;;;;;11.57;10.20;;;;;;;;;;5014074;28;20290;-64
2022/04/25 09:02:39;;;;;;;10.13;9.13;;;;;;;;;;5020019;28;20203;-65
2022/04/25 09:05:07;;;;;;;10.97;9.97;;;;;;;;;;5013018;28;20223;-65
2022/04/25 09:07:38;;;;;;;10.67;9.67;;;;;;;;;;5020783;28;20201;-65
2022/04/25 09:10:08;;;;;;;11.50;10.33;;;;;;;;;;5018648;28;20352;-65
2022/04/25 09:12:38;;;;;;;10.30;9.30;;;;;;;;;;5019986;28;20214;-66
2022/04/25 09:15:06;;;;;;;11.27;9.43;;;;;;;;;;5013674;28;20463;-65
2022/04/25 09:17:55;;;;;;;10.47;9.40;;;;;;;;;;5032543;28;20203;-64
2022/04/25 09:20:24;;;;;;;9.80;8.90;;;;;;;;;;5021481;28;20748;-64
2022/04/25 09:22:52;;;;;;;10.93;9.83;;;;;;;;;;5020895;28;20209;-65
2022/04/25 09:25:20;;;;;;;10.33;9.27;;;;;;;;;;5020960;28;20223;-64
2022/04/25 09:28:09;;;;;;;10.30;9.30;;;;;;;;;;5020739;28;20203;-65
2022/04/25 09:30:37;;;;;;;9.90;9.00;;;;;;;;;;5021528;28;20298;-66
2022/04/25 09:33:21;;;;;;;9.57;8.70;;;;;;;;;;5021657;28;20210;-65
2022/04/25 09:35:56;;;;;;;10.73;9.60;;;;;;;;;;5027204;28;20274;-65
2022/04/25 09:38:34;;;;;;;10.23;9.23;;;;;;;;;;5023621;28;20277;-65
2022/04/25 09:41:03;;;;;;;10.53;9.50;;;;;;;;;;5014710;28;20274;-65
2022/04/25 09:43:31;;;;;;;11.17;9.67;;;;;;;;;;5020699;28;20211;-64
2022/04/25 09:46:06;;;;;;;9.83;8.90;;;;;;;;;;5022859;28;20234;-65
2022/04/25 09:48:34;;;;;;;10.43;9.43;;;;;;;;;;5017607;28;20567;-66
2022/04/25 09:51:06;;;;;;;8.97;8.17;;;;;;;;;;5020458;28;20485;-66
2022/04/25 09:53:53;;;;;;;9.87;8.87;;;;;;;;;;5019379;28;20209;-65
2022/04/25 09:56:25;;;;;;;10.63;9.63;;;;;;;;;;5017641;28;20242;-65
2022/04/25 09:59:06;;;;;;;10.50;9.37;;;;;;;;;;5020258;28;20213;-66
2022/04/25 10:01:38;;;;;;;9.20;8.30;;;;;;;;;;5014934;28;20317;-65
2022/04/25 10:04:06;;;;;;;9.17;8.27;;;;;;;;;;5013015;28;20199;-65
2022/04/25 10:06:35;;;;;;;9.53;8.63;;;;;;;;;;5019122;28;20238;-66
2022/04/25 10:09:06;;;;;;;10.33;7.93;;;;;;;;;;5017735;28;20203;-65
2022/04/25 10:11:35;;;;;;;9.30;8.40;;;;;;;;;;5005499;28;20209;-63
2022/04/25 10:14:03;;;;;;;9.03;8.20;;;;;;;;;;5018177;28;20787;-65
2022/04/25 10:16:31;;;;;;;8.60;7.80;;;;;;;;;;5001683;28;20243;-65
2022/04/25 10:18:59;;;;;;;9.47;8.50;;;;;;;;;;5008955;28;20207;-65
2022/04/25 10:21:30;;;;;;;10.03;9.03;;;;;;;;;;5019199;28;20225;-66
2022/04/25 10:23:57;;;;;;;9.50;8.60;;;;;;;;;;5017497;28;20262;-65
2022/04/25 10:26:29;;;;;;;8.90;8.10;;;;;;;;;;5010924;28;21678;-65
2022/04/25 10:29:01;;;;;;;9.23;8.33;;;;;;;;;;5007595;28;20214;-65
2022/04/25 10:31:30;;;;;;;10.73;9.63;;;;;;;;;;5004654;28;20261;-65
2022/04/25 10:33:58;;;;;;;9.97;9.00;;;;;;;;;;5006174;28;20238;-65
2022/04/25 10:36:38;;;;;;;9.43;8.53;;;;;;;;;;5007541;28;20811;-66
2022/04/25 10:39:14;;;;;;;9.87;8.70;;;;;;;;;;5004864;28;20207;-65
2022/04/25 10:44:28;;;;;;;9.33;8.43;;;;;;;;;;5001999;28;20289;-65
2022/04/25 10:47:11;;;;;;;8.77;7.80;;;;;;;;;;5006435;28;20227;-65
2022/04/25 10:49:41;;;;;;;9.23;8.20;;;;;;;;;;5005117;28;20203;-64
2022/04/25 10:52:28;;;;;;;7.77;7.03;;;;;;;;;;4999712;28;20234;-64
2022/04/25 10:55:14;;;;;;;7.80;7.00;;;;;;;;;;4991290;28;20268;-65
2022/04/25 10:58:00;;;;;;;7.33;6.73;;;;;;;;;;5015611;28;20225;-64
2022/04/25 11:00:36;;;;;;;7.20;6.60;;;;;;;;;;5017536;28;20199;-64
2022/04/25 11:03:04;;;;;;;9.40;8.20;;;;;;;;;;5021873;28;20215;-65
2022/04/25 11:05:31;;;;;;;8.83;7.30;;;;;;;;;;5023275;28;20228;-64
2022/04/25 11:08:18;;;;;;;7.60;6.90;;;;;;;;;;5011851;28;20203;-64
2022/04/25 11:10:57;;;;;;;8.10;7.30;;;;;;;;;;5011790;28;20715;-65
2022/04/25 11:13:26;;;;;;;7.97;7.23;;;;;;;;;;5012397;28;20210;-65
2022/04/25 11:15:56;;;;;;;7.67;7.07;;;;;;;;;;5011863;28;20226;-65
2022/04/25 11:18:41;;;;;;;8.50;7.70;;;;;;;;;;5010574;28;21034;-65
2022/04/25 11:21:16;;;;;;;8.03;7.33;;;;;;;;;;5013554;28;20230;-65
2022/04/25 11:23:44;;;;;;;9.30;8.23;;;;;;;;;;5017537;28;20285;-66
2022/04/25 11:26:36;;;;;;;8.97;8.07;;;;;;;;;;5021069;28;20222;-66
2022/04/25 11:29:08;;;;;;;9.57;8.53;;;;;;;;;;5022624;28;20661;-65
2022/04/25 11:31:36;;;;;;;8.07;7.27;;;;;;;;;;5022016;28;20203;-65
2022/04/25 11:34:04;;;;;;;9.67;6.97;;;;;;;;;;5017328;28;20214;-65
2022/04/25 11:36:37;;;;;;;11.03;7.30;;;;;;;;;;5022673;28;20231;-65
2022/04/25 11:41:51;;;;;;;5.90;5.30;;;;;;;;;;5026372;28;20225;-65
2022/04/25 11:44:18;;;;;;;6.57;5.97;;;;;;;;;;5018286;28;20208;-66
2022/04/25 11:46:47;;;;;;;11.07;8.00;;;;;;;;;;5020386;28;20222;-64
2022/04/25 11:49:26;;;;;;;9.90;8.70;;;;;;;;;;5004532;28;20203;-64
2022/04/25 11:51:55;;;;;;;9.67;8.53;;;;;;;;;;5011507;28;20672;-64
2022/04/25 11:54:23;;;;;;;8.70;7.83;;;;;;;;;;5010992;28;20211;-64
2022/04/25 11:56:50;;;;;;;7.00;6.30;;;;;;;;;;5014740;28;20220;-63
2022/04/25 11:59:19;;;;;;;7.70;7.00;;;;;;;;;;5016251;28;20229;-64
2022/04/25 12:01:48;;;;;;;7.80;6.60;;;;;;;;;;5017551;28;20608;-63
2022/04/25 12:04:29;;;;;;;10.10;6.80;;;;;;;;;;5015885;28;20219;-65
2022/04/25 12:07:10;;;;;;;6.60;5.97;;;;;;;;;;5022377;28;20234;-65
2022/04/25 12:15:40;;;;;;;4.50;4.10;;;;;;;;;;5013952;28;20318;-64
2022/04/25 12:18:13;;;;;;;3.43;3.13;;;;;;;;;;5011403;28;20294;-64
2022/04/25 12:20:41;;;;;;;3.57;3.27;;;;;;;;;;5016438;28;23184;-64
2022/04/25 12:23:10;;;;;;;3.60;3.30;;;;;;;;;;5013513;28;20226;-65
2022/04/25 12:25:43;;;;;;;2.77;2.57;;;;;;;;;;5018300;28;20278;-64
2022/04/25 12:28:13;;;;;;;2.87;2.67;;;;;;;;;;5003232;28;20211;-64
2022/04/25 12:31:00;;;;;;;3.70;3.40;;;;;;;;;;5015659;28;20798;-64
2022/04/25 12:33:39;;;;;;;3.17;2.87;;;;;;;;;;5003533;28;20219;-63
2022/04/25 12:36:12;;;;;;;2.30;2.20;;;;;;;;;;5012200;28;20231;-63
2022/04/25 12:38:41;;;;;;;4.83;4.43;;;;;;;;;;5009983;28;20203;-64
2022/04/25 12:41:09;;;;;;;2.23;2.13;;;;;;;;;;5000628;28;20211;-64
2022/04/25 12:43:42;;;;;;;2.90;2.70;;;;;;;;;;5006860;28;20206;-62
2022/04/25 12:46:10;;;;;;;2.50;2.30;;;;;;;;;;5008107;28;20252;-64
2022/04/25 12:49:07;;;;;;;2.30;2.20;;;;;;;;;;5017111;28;20207;-65
2022/04/25 12:51:39;;;;;;;2.70;2.17;;;;;;;;;;5000439;28;20649;-64
2022/04/25 12:54:19;;;;;;;3.20;3.00;;;;;;;;;;5014218;28;20215;-62
2022/04/25 12:56:47;;;;;;;2.07;1.97;;;;;;;;;;5014301;28;20720;-64
2022/04/25 12:59:35;;;;;;;2.20;2.10;;;;;;;;;;5005739;28;20210;-64
2022/04/25 13:02:15;;;;;;;2.10;2.00;;;;;;;;;;4998915;28;20846;-64
2022/04/25 13:04:52;;;;;;;2.80;2.50;;;;;;;;;;5006181;28;20230;-65
2022/04/25 13:07:22;;;;;;;2.37;2.27;;;;;;;;;;5012795;28;20253;-65
2022/04/25 13:09:53;;;;;;;2.23;2.13;;;;;;;;;;5010455;28;20207;-65
2022/04/25 13:12:21;;;;;;;2.77;2.60;;;;;;;;;;5011675;28;20656;-64
2022/04/25 13:14:48;;;;;;;2.33;2.23;;;;;;;;;;5004612;28;20213;-64
2022/04/25 13:17:16;;;;;;;2.40;2.30;;;;;;;;;;4997373;28;20211;-65
2022/04/25 13:19:43;;;;;;;2.40;2.30;;;;;;;;;;4999100;28;20219;-64
2022/04/25 13:22:11;;;;;;;2.40;2.30;;;;;;;;;;4999111;28;20632;-65
2022/04/25 13:24:38;;;;;;;2.03;1.93;;;;;;;;;;5000452;28;20245;-65
2022/04/25 13:27:06;;;;;;;2.30;2.20;;;;;;;;;;5010401;28;20277;-66
2022/04/25 13:29:34;;;;;;;7.23;6.00;;;;;;;;;;5020388;28;20210;-65
2022/04/25 13:32:03;;;;;;;8.63;7.10;;;;;;;;;;5013125;28;20223;-67
2022/04/25 13:34:30;;;;;;;2.90;2.70;;;;;;;;;;5016106;28;20203;-66
2022/04/25 13:37:02;;;;;;;15.00;12.73;;;;;;;;;;5019346;28;20329;-66
2022/04/25 13:39:30;;;;;;;4.57;4.17;;;;;;;;;;5009018;28;20585;-64
2022/04/25 13:42:01;;;;;;;3.20;3.00;;;;;;;;;;5001645;28;20250;-65
2022/04/25 13:44:28;;;;;;;4.43;4.03;;;;;;;;;;4996924;28;20200;-66
2022/04/25 13:46:56;;;;;;;10.90;8.20;;;;;;;;;;5003001;28;20274;-65
2022/04/25 13:49:24;;;;;;;4.90;4.37;;;;;;;;;;4999368;28;20720;-66
2022/04/25 13:51:52;;;;;;;2.30;2.20;;;;;;;;;;4997465;28;20221;-65
2022/04/25 13:54:26;;;;;;;4.53;4.10;;;;;;;;;;5002905;28;20214;-65
2022/04/25 13:56:55;;;;;;;3.70;3.40;;;;;;;;;;5004263;28;20223;-67
2022/04/25 13:59:23;;;;;;;2.63;2.47;;;;;;;;;;4999831;28;20254;-65
2022/04/25 14:01:50;;;;;;;2.77;2.57;;;;;;;;;;5000430;28;20684;-64
2022/04/25 14:04:18;;;;;;;4.97;4.57;;;;;;;;;;4996622;28;20238;-65
2022/04/25 14:06:45;;;;;;;3.10;2.90;;;;;;;;;;4997646;28;20759;-65
2022/04/25 14:09:13;;;;;;;2.57;2.37;;;;;;;;;;5005121;28;20213;-65
2022/04/25 14:11:41;;;;;;;3.80;3.50;;;;;;;;;;4999490;28;20219;-66
2022/04/25 14:14:08;;;;;;;2.80;2.60;;;;;;;;;;4994463;28;20203;-66
2022/04/25 14:16:36;;;;;;;3.00;2.80;;;;;;;;;;5000940;28;20230;-63
2022/04/25 14:19:03;;;;;;;2.63;2.42;;;;;;;;;;4998926;28;20212;-64
2022/04/25 14:21:32;;;;;;;2.38;2.28;;;;;;;;;;5005738;28;20262;-65
2022/04/25 14:24:00;;;;;;;2.50;2.40;;;;;;;;;;5008589;28;20219;-64
2022/04/25 14:26:27;;;;;;;2.30;2.20;;;;;;;;;;5002435;28;20237;-65
2022/04/25 14:28:55;;;;;;;2.20;2.10;;;;;;;;;;5002035;28;21750;-66
2022/04/25 14:31:37;;;;;;;2.05;1.90;;;;;;;;;;5013525;28;20258;-65
2022/04/25 14:34:12;;;;;;;2.00;1.90;;;;;;;;;;4994756;28;20202;-66
2022/04/25 14:36:43;;;;;;;2.10;2.00;;;;;;;;;;4997290;28;20238;-66
2022/04/25 14:39:10;;;;;;;2.40;2.20;;;;;;;;;;5004954;28;20217;-63
2022/04/25 14:41:38;;;;;;;2.50;2.30;;;;;;;;;;5008779;28;20278;-64
2022/04/25 14:44:05;;;;;;;2.63;2.30;;;;;;;;;;5007946;28;20211;-65
2022/04/25 14:46:33;;;;;;;2.25;2.08;;;;;;;;;;5001291;28;20234;-65
2022/04/25 14:49:00;;;;;;;2.47;2.38;;;;;;;;;;5014054;28;20318;-65
2022/04/25 14:54:30;;;;;;;2.58;2.47;;;;;;;;;;5009959;28;20203;-67
2022/04/25 14:56:58;;;;;;;3.00;2.80;;;;;;;;;;5010006;28;20238;-63
2022/04/25 14:59:26;;;;;;;2.70;2.50;;;;;;;;;;5016916;28;20207;-65
2022/04/25 15:01:55;;;;;;;2.45;2.35;;;;;;;;;;5007926;28;20794;-65
2022/04/25 15:04:22;;;;;;;2.92;2.70;;;;;;;;;;5021542;28;20234;-65
2022/04/25 15:06:50;;;;;;;3.10;2.90;;;;;;;;;;5017129;28;20512;-65
2022/04/25 15:09:18;;;;;;;2.65;2.55;;;;;;;;;;5013194;28;20695;-64
2022/04/25 15:11:45;;;;;;;2.60;2.47;;;;;;;;;;5020737;28;20203;-66
2022/04/25 15:14:13;;;;;;;2.65;2.45;;;;;;;;;;5022335;28;20203;-65
2022/04/25 15:16:40;;;;;;;3.58;2.85;;;;;;;;;;5018570;28;21183;-65